地図

経路データ

SID SEASON NUMBER BASIN SUBBASIN NAME ISO_TIME NATURE LAT LON WMO_WIND WMO_PRES WMO_AGENCY TRACK_TYPE DIST2LAND LANDFALL IFLAG USA_AGENCY USA_ATCF_ID USA_LAT USA_LON USA_RECORD USA_STATUS USA_WIND USA_PRES USA_SSHS USA_R34_NE USA_R34_SE USA_R34_SW USA_R34_NW USA_R50_NE USA_R50_SE USA_R50_SW USA_R50_NW USA_R64_NE USA_R64_SE USA_R64_SW USA_R64_NW USA_POCI USA_ROCI USA_RMW USA_EYE TOKYO_LAT TOKYO_LON TOKYO_GRADE TOKYO_WIND TOKYO_PRES TOKYO_R50_DIR TOKYO_R50_LONG TOKYO_R50_SHORT TOKYO_R30_DIR TOKYO_R30_LONG TOKYO_R30_SHORT TOKYO_LAND CMA_LAT CMA_LON CMA_CAT CMA_WIND CMA_PRES HKO_LAT HKO_LON HKO_CAT HKO_WIND HKO_PRES NEWDELHI_LAT NEWDELHI_LON NEWDELHI_GRADE NEWDELHI_WIND NEWDELHI_PRES NEWDELHI_CI NEWDELHI_DP NEWDELHI_POCI REUNION_LAT REUNION_LON REUNION_TYPE REUNION_WIND REUNION_PRES REUNION_TNUM REUNION_CI REUNION_RMW REUNION_R34_NE REUNION_R34_SE REUNION_R34_SW REUNION_R34_NW REUNION_R50_NE REUNION_R50_SE REUNION_R50_SW REUNION_R50_NW REUNION_R64_NE REUNION_R64_SE REUNION_R64_SW REUNION_R64_NW BOM_LAT BOM_LON BOM_TYPE BOM_WIND BOM_PRES BOM_TNUM BOM_CI BOM_RMW BOM_R34_NE BOM_R34_SE BOM_R34_SW BOM_R34_NW BOM_R50_NE BOM_R50_SE BOM_R50_SW BOM_R50_NW BOM_R64_NE BOM_R64_SE BOM_R64_SW BOM_R64_NW BOM_ROCI BOM_POCI BOM_EYE BOM_POS_METHOD BOM_PRES_METHOD NADI_LAT NADI_LON NADI_CAT NADI_WIND NADI_PRES WELLINGTON_LAT WELLINGTON_LON WELLINGTON_WIND WELLINGTON_PRES DS824_LAT DS824_LON DS824_STAGE DS824_WIND DS824_PRES TD9636_LAT TD9636_LON TD9636_STAGE TD9636_WIND TD9636_PRES TD9635_LAT TD9635_LON TD9635_WIND TD9635_PRES TD9635_ROCI NEUMANN_LAT NEUMANN_LON NEUMANN_CLASS NEUMANN_WIND NEUMANN_PRES MLC_LAT MLC_LON MLC_CLASS MLC_WIND MLC_PRES USA_GUST BOM_GUST BOM_GUST_PER REUNION_GUST REUNION_GUST_PER USA_SEAHGT USA_SEARAD_NE USA_SEARAD_SE USA_SEARAD_SW USA_SEARAD_NW STORM_SPEED STORM_DIR
1896158N06136 1896 12 WP MM NOT_NAMED 1896-06-05 16:00:00 NR 6.40000 136.000 main 796 717 __________O___ -1 6.40000 136.000 7 99 300
1896158N06136 1896 12 WP MM NOT_NAMED 1896-06-05 18:00:00 NR 8.06504 133.130 main 717 325 __________P___ -1 8.06504 133.130 7 97 300
1896158N06136 1896 12 WP MM NOT_NAMED 1896-06-05 21:00:00 NR 10.4312 128.920 main 325 0 __________P___ -1 10.4312 128.920 7 90 299
1896158N06136 1896 12 WP MM NOT_NAMED 1896-06-06 00:00:00 NR 12.4490 125.130 main 0 0 __________P___ -1 12.4490 125.130 7 76 298
1896158N06136 1896 12 WP MM NOT_NAMED 1896-06-06 03:00:00 NR 13.9428 122.092 main 0 0 __________P___ -1 13.9428 122.092 7 63 296
1896158N06136 1896 12 WP MM NOT_NAMED 1896-06-06 04:00:00 NR 14.3000 121.300 main 0 0 __________O___ -1 14.3000 121.300 4 43 294
1896158N06136 1896 12 WP MM NOT_NAMED 1896-06-06 06:00:00 NR 14.7957 120.080 main 0 10 __________P___ -1 14.7957 120.080 4 29 290
1896158N06136 1896 12 WP MM NOT_NAMED 1896-06-06 09:00:00 NR 15.1257 118.988 main 102 109 __________P___ -1 15.1257 118.988 4 16 284
1896158N06136 1896 12 WP MM NOT_NAMED 1896-06-06 12:00:00 NR 15.1749 118.475 main 151 151 __________P___ -1 15.1749 118.475 4 8 274
1896158N06136 1896 12 WP MM NOT_NAMED 1896-06-06 15:00:00 NR 15.1729 118.199 main 183 183 __________P___ -1 15.1729 118.199 4 5 274
1896158N06136 1896 12 WP MM NOT_NAMED 1896-06-06 16:00:00 NR 15.2000 118.100 main 193 193 __________O___ -1 15.2000 118.100 4 14 295
1896158N06136 1896 12 WP MM NOT_NAMED 1896-06-06 18:00:00 NR 15.4540 117.561 main 231 242 __________P___ -1 15.4540 117.561 4 17 299
1896158N06136 1896 12 WP MM NOT_NAMED 1896-06-06 21:00:00 NR 15.8920 116.794 main 310 310 __________P___ -1 15.8920 116.794 4 16 304
1896158N06136 1896 12 WP MM NOT_NAMED 1896-06-07 00:00:00 NR 16.3673 116.146 main 387 387 __________P___ -1 16.3673 116.146 4 14 312
1896158N06136 1896 12 WP MM NOT_NAMED 1896-06-07 03:00:00 NR 16.8457 115.693 main 436 438 __________P___ -1 16.8457 115.693 4 12 320
1896158N06136 1896 12 WP MM NOT_NAMED 1896-06-07 04:00:00 NR 17.0000 115.600 main 451 451 __________O___ -1 17.0000 115.600 4 9 340
1896158N06136 1896 12 WP MM NOT_NAMED 1896-06-07 06:00:00 NR 17.2798 115.522 main 470 469 __________P___ -1 17.2798 115.522 4 8 0
1896158N06136 1896 12 WP MM NOT_NAMED 1896-06-07 09:00:00 NR 17.6880 115.608 main 473 460 __________P___ -1 17.6880 115.608 4 9 22
1896158N06136 1896 12 WP MM NOT_NAMED 1896-06-07 12:00:00 NR 18.0847 115.859 main 460 442 __________P___ -1 18.0847 115.859 4 10 35
1896158N06136 1896 12 WP MM NOT_NAMED 1896-06-07 15:00:00 NR 18.4723 116.188 main 445 437 __________P___ -1 18.4723 116.188 4 10 39
1896158N06136 1896 12 WP MM NOT_NAMED 1896-06-07 16:00:00 NR 18.6000 116.300 main 437 423 __________O___ -1 18.6000 116.300 4 10 39
1896158N06136 1896 12 WP MM NOT_NAMED 1896-06-07 18:00:00 NR 18.8536 116.511 main 426 404 __________P___ -1 18.8536 116.511 4 10 37
1896158N06136 1896 12 WP MM NOT_NAMED 1896-06-07 21:00:00 NR 19.2305 116.800 main 404 368 __________P___ -1 19.2305 116.800 4 9 35
1896158N06136 1896 12 WP MM NOT_NAMED 1896-06-08 00:00:00 NR 19.6043 117.065 main 371 334 __________P___ -1 19.6043 117.065 4 9 33
1896158N06136 1896 12 WP MM NOT_NAMED 1896-06-08 03:00:00 NR 19.9762 117.317 main 334 326 __________P___ -1 19.9762 117.317 4 9 32
1896158N06136 1896 12 WP MM NOT_NAMED 1896-06-08 04:00:00 NR 20.1000 117.400 main 326 __________O___ -1 20.1000 117.400 4 9 33

デジタル台風データ・検索

IBTrACS Databaseについて

本データベースは、米国NOAAが公開する1842年以降の世界の熱帯低気圧のベストトラックデータアーカイブInternational Best Track Archive for Climate Stewardship (IBTrACS)を、ウェブで閲覧しやすい形式に変換したものです。

最終更新日:2021-12-01